Time;durP1;ratioP1;P1;durP2;ratioP2;P2;SDS_P1;SDS_P2;PMS_P1;PMS_P2;Temp;Humidity;BMP_temperature;BMP_pressure;BME280_temperature;BME280_humidity;BME280_pressure;Samples;Min_cycle;Max_cycle;Signal;HPM_P1;HPM_P2
2023/06/18 00:02:21;;;;;;;15.40;13.80;;;;;;;15.58;59.52;100616.95;105083;1294;72493;-86
2023/06/18 00:05:07;;;;;;;15.20;13.60;;;;;;;15.52;59.55;100618.16;105158;1293;68276;-87
2023/06/18 00:07:54;;;;;;;16.10;14.40;;;;;;;15.46;59.67;100620.63;105002;1288;71238;-87
2023/06/18 00:10:40;;;;;;;17.00;14.50;;;;;;;15.33;59.78;100620.43;105188;1289;59203;-87
2023/06/18 00:13:26;;;;;;;17.30;15.50;;;;;;;15.23;59.96;100620.05;105094;1291;60374;-87
2023/06/18 00:16:12;;;;;;;21.40;15.30;;;;;;;15.24;60.10;100615.17;105231;1293;75231;-87
2023/06/18 00:18:58;;;;;;;16.40;14.20;;;;;;;15.29;60.09;100617.09;105125;1289;72246;-87
2023/06/18 00:21:45;;;;;;;16.20;14.60;;;;;;;15.33;60.17;100623.02;105200;1287;71258;-87
2023/06/18 00:24:32;;;;;;;17.00;15.20;;;;;;;15.37;60.12;100624.62;105171;1288;60469;-87
2023/06/18 00:27:20;;;;;;;25.60;18.30;;;;;;;15.40;60.08;100629.91;105248;1289;59833;-87
2023/06/18 00:30:07;;;;;;;22.10;17.40;;;;;;;15.35;60.28;100627.11;105122;1288;72559;-88
2023/06/18 00:32:54;;;;;;;20.20;17.00;;;;;;;15.28;60.50;100621.14;105028;1290;67296;-88
2023/06/18 00:35:42;;;;;;;17.70;15.70;;;;;;;15.31;60.63;100624.30;105319;1288;71235;-87
2023/06/18 00:38:28;;;;;;;22.00;17.20;;;;;;;15.38;60.67;100625.62;105217;1288;61027;-87
2023/06/18 00:41:16;;;;;;;18.60;16.00;;;;;;;15.41;60.55;100623.94;105133;1291;59296;-87
2023/06/18 00:44:03;;;;;;;20.10;17.30;;;;;;;15.47;60.65;100625.84;105232;1288;75229;-87
2023/06/18 00:46:51;;;;;;;20.30;17.90;;;;;;;15.48;60.76;100625.43;105287;1288;67843;-88
2023/06/18 00:49:40;;;;;;;22.70;17.40;;;;;;;15.51;60.81;100626.05;105304;1292;70292;-87
2023/06/18 00:52:28;;;;;;;22.80;17.30;;;;;;;15.53;60.90;100628.91;105043;1288;60926;-87
2023/06/18 00:55:18;;;;;;;20.30;16.50;;;;;;;15.53;60.92;100630.45;105097;1289;61700;-87
2023/06/18 00:58:05;;;;;;;18.90;15.90;;;;;;;15.55;60.97;100628.30;105240;1288;72639;-87
2023/06/18 01:00:51;;;;;;;17.50;15.30;;;;;;;15.59;60.99;100625.92;105256;1288;67967;-87
2023/06/18 01:03:37;;;;;;;17.30;14.10;;;;;;;15.62;61.05;100623.89;105267;1288;72332;-87
2023/06/18 01:06:24;;;;;;;16.80;14.60;;;;;;;15.65;61.02;100625.54;105198;1288;61050;-90
2023/06/18 01:09:12;;;;;;;16.50;14.70;;;;;;;15.64;61.09;100622.45;105177;1289;59607;-90
2023/06/18 01:12:00;;;;;;;16.40;14.70;;;;;;;15.64;61.15;100618.09;105176;1289;72381;-90
2023/06/18 01:14:52;;;;;;;17.70;14.70;;;;;;;15.64;61.23;100614.25;105144;1288;67217;-90
2023/06/18 01:17:41;;;;;;;16.10;14.50;;;;;;;15.67;61.30;100619.72;105210;1288;70403;-90
2023/06/18 01:20:30;;;;;;;18.50;15.10;;;;;;;15.67;61.28;100615.39;105152;1289;60361;-90
2023/06/18 01:23:27;;;;;;;16.90;15.00;;;;;;;15.67;61.33;100619.01;105297;1289;60358;-89
2023/06/18 01:26:14;;;;;;;18.50;14.20;;;;;;;15.67;61.38;100616.40;105263;1291;72490;-89
2023/06/18 01:29:00;;;;;;;;;;;;;;;15.65;61.48;100617.70;105196;1288;68093;-89
2023/06/18 01:31:47;;;;;;;17.40;14.30;;;;;;;15.63;61.49;100620.02;105273;1288;71144;-89
2023/06/18 01:34:38;;;;;;;19.90;17.00;;;;;;;15.62;61.48;100618.52;105120;1288;60359;-89
2023/06/18 01:37:48;;;;;;;16.30;14.50;;;;;;;15.62;61.54;100616.94;105279;1288;60406;-90
2023/06/18 01:40:39;;;;;;;16.60;14.50;;;;;;;15.61;61.57;100617.36;105245;1288;75214;-89
2023/06/18 01:44:01;;;;;;;18.20;16.20;;;;;;;15.57;61.55;100619.40;100894;1294;5814773;-89
2023/06/18 01:46:53;;;;;;;16.30;14.70;;;;;;;15.54;61.63;100623.66;104513;1297;71159;-89
2023/06/18 01:49:40;;;;;;;14.70;13.20;;;;;;;15.51;61.62;100628.11;105483;1297;58239;-90
2023/06/18 01:52:28;;;;;;;19.20;14.10;;;;;;;15.45;61.62;100631.63;105507;1297;59726;-90
2023/06/18 01:55:17;;;;;;;16.30;13.80;;;;;;;15.42;61.67;100631.73;105375;1297;73488;-89
2023/06/18 01:58:03;;;;;;;14.70;13.20;;;;;;;15.39;61.70;100635.32;104620;1297;67206;-87
2023/06/18 02:00:51;;;;;;;;;;;;;;;15.34;61.70;100636.89;104445;1297;72212;-87
2023/06/18 02:03:38;;;;;;;14.80;13.30;;;;;;;15.29;61.81;100640.89;104545;1297;59189;-87
2023/06/18 02:06:24;;;;;;;;;;;;;;;15.23;61.85;100643.50;105621;1297;59000;-87
2023/06/18 02:09:10;;;;;;;;;;;;;;;15.17;61.91;100640.77;104763;1297;73577;-87
2023/06/18 02:11:56;;;;;;;15.10;13.60;;;;;;;15.12;61.87;100641.27;104572;1297;67889;-87
2023/06/18 02:14:42;;;;;;;16.00;14.40;;;;;;;15.06;61.94;100642.91;104558;1297;75721;-87
2023/06/18 02:17:29;;;;;;;15.80;13.70;;;;;;;15.00;62.02;100646.60;104459;1297;60382;-86
2023/06/18 02:20:16;;;;;;;18.30;15.40;;;;;;;14.96;62.07;100641.71;104552;1297;60563;-87
2023/06/18 02:23:03;;;;;;;17.20;15.50;;;;;;;14.91;62.16;100636.48;105088;1288;72010;-87
2023/06/18 02:25:49;;;;;;;16.50;13.70;;;;;;;14.88;62.16;100633.63;105233;1288;67420;-90
2023/06/18 02:28:35;;;;;;;;;;;;;;;14.85;62.14;100635.11;105187;1290;70122;-89
2023/06/18 02:31:21;;;;;;;13.50;12.40;;;;;;;14.78;62.15;100637.09;105371;1287;60393;-89
2023/06/18 02:34:08;;;;;;;14.50;13.10;;;;;;;14.64;62.24;100637.21;105352;1288;60381;-89
2023/06/18 02:36:55;;;;;;;15.00;13.60;;;;;;;14.58;62.38;100635.48;105323;1287;77702;-89
2023/06/18 02:39:41;;;;;;;13.80;12.10;;;;;;;14.60;62.47;100641.14;105248;1288;68624;-89
2023/06/18 02:42:28;;;;;;;14.30;12.80;;;;;;;14.63;62.41;100650.94;105178;1287;71003;-89
2023/06/18 02:45:15;;;;;;;14.60;13.30;;;;;;;14.64;62.50;100655.93;105133;1288;59030;-89
2023/06/18 02:48:01;;;;;;;15.60;13.30;;;;;;;14.64;62.50;100656.80;105278;1288;63082;-89
2023/06/18 02:50:47;;;;;;;15.30;13.80;;;;;;;14.62;62.49;100656.71;105189;1288;72598;-89
2023/06/18 02:53:33;;;;;;;15.40;13.90;;;;;;;14.60;62.52;100659.89;105178;1288;68305;-90
2023/06/18 02:56:19;;;;;;;16.10;14.50;;;;;;;14.58;62.49;100660.45;105257;1288;71238;-89
2023/06/18 02:59:05;;;;;;;16.70;15.00;;;;;;;14.54;62.54;100665.11;105199;1289;60209;-89
2023/06/18 03:01:53;;;;;;;15.30;13.80;;;;;;;14.44;62.60;100667.51;105140;1291;60605;-89
2023/06/18 03:04:40;;;;;;;13.70;12.50;;;;;;;14.40;62.63;100667.29;105192;1288;73477;-89
2023/06/18 03:07:27;;;;;;;14.70;13.20;;;;;;;14.36;62.67;100672.59;105260;1288;68237;-89
2023/06/18 03:10:13;;;;;;;14.00;12.50;;;;;;;14.34;62.72;100674.55;105123;1289;72959;-89
2023/06/18 03:12:59;;;;;;;14.80;13.50;;;;;;;14.33;62.91;100673.55;105284;1288;58745;-89
2023/06/18 03:15:45;;;;;;;15.90;14.40;;;;;;;14.34;62.90;100679.25;105273;1288;61117;-89
2023/06/18 03:18:31;;;;;;;16.70;15.00;;;;;;;14.35;62.89;100685.46;105287;1288;72414;-89
2023/06/18 03:21:18;;;;;;;16.20;14.30;;;;;;;14.36;62.99;100683.34;105294;1288;67272;-89
2023/06/18 03:24:04;;;;;;;14.60;13.30;;;;;;;14.35;62.99;100683.55;105280;1288;75453;-89
2023/06/18 03:26:51;;;;;;;15.20;13.80;;;;;;;14.38;63.03;100683.63;105103;1288;60492;-89
2023/06/18 03:29:38;;;;;;;15.20;13.80;;;;;;;14.40;63.04;100683.05;105287;1289;59267;-89
2023/06/18 03:32:24;;;;;;;15.50;14.00;;;;;;;14.42;63.05;100685.77;105328;1288;73382;-89
2023/06/18 03:35:10;;;;;;;16.50;14.80;;;;;;;14.45;63.14;100685.00;105017;1288;69028;-89
2023/06/18 03:37:57;;;;;;;13.90;12.60;;;;;;;14.48;63.14;100690.14;105181;1288;73424;-89
2023/06/18 03:40:43;;;;;;;14.50;13.10;;;;;;;14.47;63.13;100693.45;105172;1290;60357;-90
2023/06/18 03:43:30;;;;;;;15.50;14.00;;;;;;;14.47;63.18;100696.05;105164;1288;60284;-90
2023/06/18 03:46:16;;;;;;;15.30;13.90;;;;;;;14.48;63.20;100698.95;105151;1289;76858;-89
2023/06/18 03:49:03;;;;;;;14.80;13.40;;;;;;;14.44;63.23;100703.60;105299;1290;67944;-89
2023/06/18 03:51:49;;;;;;;15.90;14.60;;;;;;;14.44;63.38;100703.27;105338;1292;71300;-89
2023/06/18 03:54:35;;;;;;;14.60;13.30;;;;;;;14.48;63.55;100701.39;105220;1288;60495;-89
2023/06/18 03:57:22;;;;;;;;;;;;;;;14.53;63.54;100705.58;105174;1288;61624;-89
2023/06/18 04:00:10;;;;;;;16.10;14.60;;;;;;;14.57;63.66;100704.39;105148;1288;72508;-89
2023/06/18 04:02:56;;;;;;;18.40;16.70;;;;;;;14.63;63.66;100708.00;105167;1294;66379;-90
2023/06/18 04:05:42;;;;;;;18.60;16.70;;;;;;;14.67;63.80;100709.27;105210;1288;71290;-89
2023/06/18 04:08:29;;;;;;;18.30;16.60;;;;;;;14.74;63.93;100717.90;105331;1288;60423;-89
2023/06/18 04:11:16;;;;;;;22.40;18.90;;;;;;;14.95;64.09;100718.80;105165;1288;60499;-89
2023/06/18 04:14:02;;;;;;;20.70;18.70;;;;;;;15.18;63.97;100712.11;105054;1290;75239;-89
2023/06/18 04:16:49;;;;;;;23.40;20.80;;;;;;;15.35;64.04;100712.40;105273;1291;68379;-89
2023/06/18 04:19:35;;;;;;;23.40;20.90;;;;;;;15.47;63.96;100717.03;105309;1288;73437;-89
2023/06/18 04:22:21;;;;;;;24.20;20.70;;;;;;;15.64;64.04;100720.46;105177;1288;62850;-89
2023/06/18 04:25:08;;;;;;;24.90;22.10;;;;;;;15.88;64.17;100719.05;104999;1289;60368;-89
2023/06/18 04:27:54;;;;;;;;;;;;;;;16.20;64.19;100723.23;105309;1288;73621;-89
2023/06/18 04:30:40;;;;;;;22.00;19.60;;;;;;;16.44;64.19;100723.23;105340;1292;67099;-89
2023/06/18 04:33:27;;;;;;;23.30;19.80;;;;;;;16.59;64.02;100721.05;105119;1291;71532;-90
2023/06/18 04:36:14;;;;;;;23.50;20.60;;;;;;;16.65;64.12;100719.96;105241;1289;60280;-89
2023/06/18 04:39:00;;;;;;;21.30;19.20;;;;;;;16.81;64.03;100713.05;105102;1288;60400;-90
2023/06/18 04:41:47;;;;;;;21.00;18.90;;;;;;;16.93;64.00;100708.92;105118;1288;72446;-89
2023/06/18 04:44:33;;;;;;;20.30;18.40;;;;;;;17.01;63.94;100710.15;105333;1288;69970;-89
2023/06/18 04:47:19;;;;;;;20.50;18.50;;;;;;;17.09;63.98;100712.09;105155;1291;72927;-89
2023/06/18 04:50:06;;;;;;;20.10;18.20;;;;;;;17.15;64.01;100710.60;105266;1288;60272;-89
2023/06/18 04:52:52;;;;;;;20.00;17.90;;;;;;;17.22;64.19;100709.95;105127;1288;60478;-90
2023/06/18 04:55:38;;;;;;;19.20;17.40;;;;;;;17.38;64.20;100709.59;105148;1288;72298;-89
2023/06/18 04:58:24;;;;;;;19.20;17.50;;;;;;;17.62;64.21;100712.59;105323;1287;70090;-90
2023/06/18 05:01:11;;;;;;;18.60;16.50;;;;;;;17.95;64.24;100718.30;105265;1292;74007;-89
2023/06/18 05:03:57;;;;;;;18.60;16.70;;;;;;;18.35;64.29;100725.48;105264;1288;60428;-90
2023/06/18 05:06:43;;;;;;;16.50;15.00;;;;;;;18.86;64.00;100728.48;105193;1290;60380;-90
2023/06/18 05:09:30;;;;;;;17.30;15.70;;;;;;;19.43;63.72;100728.96;105206;1288;155289;-90
2023/06/18 05:12:16;;;;;;;14.80;13.50;;;;;;;19.94;63.53;100727.67;105116;1288;70042;-89
2023/06/18 05:15:02;;;;;;;12.80;11.80;;;;;;;20.44;63.46;100725.48;105185;1288;72622;-89
2023/06/18 05:17:48;;;;;;;13.00;11.80;;;;;;;20.94;63.22;100726.19;105237;1288;61097;-90
2023/06/18 05:20:35;;;;;;;13.20;11.90;;;;;;;21.40;63.09;100726.52;105117;1288;58907;-90
2023/06/18 05:23:21;;;;;;;14.30;12.10;;;;;;;21.93;62.81;100728.19;105171;1287;72675;-90
2023/06/18 05:26:07;;;;;;;10.80;9.90;;;;;;;22.35;62.41;100731.13;105239;1288;69298;-90
2023/06/18 05:28:54;;;;;;;11.10;10.20;;;;;;;22.81;62.18;100737.17;105152;1290;71996;-90
2023/06/18 05:31:40;;;;;;;;;;;;;;;23.30;62.10;100738.33;105299;1288;60337;-90
2023/06/18 05:34:26;;;;;;;12.30;9.70;;;;;;;23.73;61.68;100741.75;105305;1290;60361;-88
2023/06/18 05:37:13;;;;;;;13.50;9.30;;;;;;;24.07;61.41;100743.55;105168;1288;72275;-88
2023/06/18 05:39:59;;;;;;;10.60;9.10;;;;;;;24.34;61.35;100748.88;105183;1288;69927;-88
2023/06/18 05:42:46;;;;;;;;;;;;;;;24.71;61.35;100756.94;105166;1293;72315;-87
2023/06/18 05:45:32;;;;;;;9.10;8.20;;;;;;;25.06;61.18;100755.77;105161;1291;60470;-88
2023/06/18 05:48:19;;;;;;;9.50;8.70;;;;;;;25.38;60.89;100752.09;105165;1292;60476;-88
2023/06/18 05:51:05;;;;;;;9.50;8.40;;;;;;;25.60;60.59;100752.88;105185;1288;73538;-88
2023/06/18 05:53:52;;;;;;;9.70;8.80;;;;;;;25.80;60.17;100755.83;105270;1288;67209;-88
2023/06/18 05:56:38;;;;;;;9.10;8.30;;;;;;;25.94;59.81;100758.96;105102;1290;71127;-88
2023/06/18 05:59:25;;;;;;;9.90;9.10;;;;;;;26.21;59.52;100755.70;105198;1288;60233;-88
2023/06/18 06:02:11;;;;;;;9.90;9.00;;;;;;;26.53;59.31;100759.02;105167;1288;59277;-88
2023/06/18 06:04:58;;;;;;;10.40;9.60;;;;;;;26.79;59.00;100761.16;105295;1288;72864;-88
2023/06/18 06:07:44;;;;;;;8.90;8.20;;;;;;;27.09;58.73;100760.41;104968;1288;67512;-88
2023/06/18 06:10:30;;;;;;;9.30;8.60;;;;;;;27.34;57.88;100756.02;105103;1288;71278;-88
2023/06/18 06:13:17;;;;;;;9.50;8.60;;;;;;;27.41;57.68;100754.73;105104;1288;60469;-88
2023/06/18 06:16:03;;;;;;;;;;;;;;;27.45;57.43;100753.72;105309;1287;60349;-88
2023/06/18 06:18:50;;;;;;;;;;;;;;;27.64;57.49;100754.34;105259;1288;74949;-88
2023/06/18 06:21:37;;;;;;;8.10;7.40;;;;;;;27.86;57.26;100760.30;105217;1291;67857;-89
2023/06/18 06:24:23;;;;;;;8.20;7.30;;;;;;;28.09;57.04;100759.66;105327;1288;71285;-88
2023/06/18 06:27:10;;;;;;;7.70;7.00;;;;;;;28.26;56.27;100760.66;105264;1287;57813;-88
2023/06/18 06:29:59;;;;;;;6.30;5.80;;;;;;;28.68;55.87;100761.00;105121;1288;60759;-88
2023/06/18 06:32:45;;;;;;;26.70;7.30;;;;;;;29.26;55.36;100763.16;105134;1288;73274;-89
2023/06/18 06:35:31;;;;;;;7.80;7.00;;;;;;;29.69;54.58;100760.39;105348;1288;69116;-88
2023/06/18 06:38:17;;;;;;;6.40;5.90;;;;;;;30.29;54.30;100757.78;105236;1288;72169;-89
2023/06/18 06:41:03;;;;;;;;;;;;;;;30.92;53.70;100757.52;105112;1289;61296;-88
2023/06/18 06:43:52;;;;;;;6.60;6.10;;;;;;;31.27;53.26;100760.75;105188;1291;60599;-89
2023/06/18 06:46:39;;;;;;;6.00;5.60;;;;;;;31.69;52.88;100760.20;105325;1292;72573;-89
2023/06/18 06:49:25;;;;;;;6.60;6.10;;;;;;;32.08;52.07;100757.88;105097;1288;67382;-89
2023/06/18 06:52:11;;;;;;;;;;;;;;;32.69;51.68;100761.07;105210;1288;72385;-88
2023/06/18 06:54:58;;;;;;;7.10;5.90;;;;;;;33.12;51.96;100763.08;105248;1288;60258;-89
2023/06/18 06:57:45;;;;;;;5.60;5.20;;;;;;;33.38;51.33;100759.19;105032;1288;61159;-89
2023/06/18 07:00:31;;;;;;;6.00;5.40;;;;;;;33.67;50.36;100756.24;105100;1288;73579;-89
2023/06/18 07:03:17;;;;;;;5.40;4.90;;;;;;;33.49;49.99;100755.89;105283;1288;68281;-89
2023/06/18 07:06:06;;;;;;;4.80;4.50;;;;;;;33.79;49.82;100752.69;105209;1291;73103;-89
2023/06/18 07:08:53;;;;;;;4.50;4.20;;;;;;;34.66;48.75;100749.39;105236;1288;60464;-89
2023/06/18 07:11:40;;;;;;;4.30;4.00;;;;;;;35.44;47.46;100756.89;105444;1288;60402;-89
2023/06/18 07:14:26;;;;;;;4.60;4.30;;;;;;;36.21;46.76;100754.12;105306;1288;72655;-88
2023/06/18 07:17:13;;;;;;;5.00;4.60;;;;;;;36.86;45.79;100759.84;105453;1288;69074;-89
2023/06/18 07:20:00;;;;;;;5.40;4.20;;;;;;;37.51;45.10;100760.58;105447;1288;71208;-89
2023/06/18 07:22:46;;;;;;;4.40;4.10;;;;;;;37.89;44.22;100761.02;105242;1288;60612;-88
2023/06/18 07:25:32;;;;;;;4.10;3.70;;;;;;;37.80;43.61;100761.33;104986;1288;63031;-88
2023/06/18 07:28:18;;;;;;;3.70;3.50;;;;;;;37.14;43.64;100766.05;104906;1288;73385;-89
2023/06/18 07:31:04;;;;;;;4.30;3.90;;;;;;;36.62;43.87;100765.71;104965;1288;67795;-88
2023/06/18 07:33:50;;;;;;;4.40;4.10;;;;;;;37.03;42.78;100765.23;105227;1292;74128;-88
2023/06/18 07:36:37;;;;;;;5.90;3.90;;;;;;;36.85;41.57;100763.39;105178;1288;59547;-88
2023/06/18 07:39:23;;;;;;;4.40;4.10;;;;;;;35.98;41.31;100758.58;105390;1288;60550;-88
2023/06/18 07:42:09;;;;;;;4.50;4.10;;;;;;;35.45;41.20;100758.52;105404;1288;72550;-89
2023/06/18 07:44:56;;;;;;;4.70;4.40;;;;;;;35.80;40.82;100762.70;105285;1288;69067;-88
2023/06/18 07:47:42;;;;;;;4.70;4.30;;;;;;;37.17;39.52;100762.73;105277;1291;72187;-88
2023/06/18 07:50:29;;;;;;;5.20;4.80;;;;;;;38.40;38.22;100758.77;105203;1288;61413;-88
2023/06/18 07:53:15;;;;;;;6.30;5.00;;;;;;;38.67;37.51;100759.52;105301;1288;59336;-88
2023/06/18 07:56:01;;;;;;;4.40;4.10;;;;;;;39.05;37.34;100764.39;105346;1291;72271;-88
2023/06/18 07:58:47;;;;;;;4.80;4.40;;;;;;;38.90;36.90;100764.41;105241;1287;67959;-89
2023/06/18 08:01:33;;;;;;;4.50;4.20;;;;;;;38.89;36.40;100765.07;105141;1288;72559;-88
2023/06/18 08:04:19;;;;;;;4.80;4.40;;;;;;;37.88;35.60;100768.84;105380;1288;60497;-89
2023/06/18 08:07:06;;;;;;;4.70;4.10;;;;;;;35.74;35.47;100769.99;105290;1292;60417;-88
2023/06/18 08:09:52;;;;;;;4.60;4.20;;;;;;;34.07;35.85;100765.27;105268;1288;72342;-89
2023/06/18 08:12:38;;;;;;;4.60;4.30;;;;;;;32.82;35.77;100768.79;105337;1288;67231;-88
2023/06/18 08:15:24;;;;;;;;;;;;;;;31.67;35.85;100771.10;105205;1288;72586;-88
2023/06/18 08:18:10;;;;;;;7.30;4.70;;;;;;;30.71;35.89;100769.53;105362;1288;60493;-88
2023/06/18 08:20:57;;;;;;;6.30;4.20;;;;;;;29.88;35.62;100767.69;105334;1288;60371;-88
2023/06/18 08:23:43;;;;;;;4.80;4.30;;;;;;;28.90;35.74;100771.05;105311;1288;73284;-88
2023/06/18 08:26:29;;;;;;;4.50;4.10;;;;;;;28.17;35.98;100772.99;105334;1288;67242;-88
2023/06/18 08:29:15;;;;;;;4.40;4.10;;;;;;;27.58;36.01;100775.23;105339;1287;71249;-88
2023/06/18 08:32:04;;;;;;;4.30;4.00;;;;;;;27.08;36.24;100777.69;105309;1289;62221;-88
2023/06/18 08:34:52;;;;;;;5.10;4.70;;;;;;;26.68;36.38;100774.26;105303;1291;59317;-88
2023/06/18 08:38:18;;;;;;;6.20;4.70;;;;;;;26.27;36.41;100777.38;105290;1289;73770;-91
2023/06/18 08:41:44;;;;;;;5.20;4.60;;;;;;;25.67;36.81;100781.14;105454;1288;67189;-91
2023/06/18 08:45:10;;;;;;;5.60;4.80;;;;;;;25.32;36.96;100785.38;105008;1291;71429;-90
2023/06/18 08:48:30;;;;;;;5.10;4.70;;;;;;;24.93;37.31;100783.52;105146;1292;60609;-90
2023/06/18 08:51:39;;;;;;;9.70;5.50;;;;;;;24.75;37.63;100783.45;105160;1295;60229;-90
2023/06/18 08:55:08;;;;;;;5.50;5.00;;;;;;;24.70;37.96;100782.20;105173;1291;75271;-89
2023/06/18 08:58:36;;;;;;;5.00;4.60;;;;;;;27.23;38.45;100778.48;105038;1291;68433;-91
2023/06/18 09:01:45;;;;;;;7.10;4.50;;;;;;;29.99;36.95;100779.92;105117;1292;71339;-91
2023/06/18 09:05:03;;;;;;;4.70;4.40;;;;;;;29.37;37.13;100779.73;105145;1291;58950;-91
2023/06/18 09:08:47;;;;;;;7.40;5.00;;;;;;;28.43;37.63;100779.23;104999;1297;58829;-90
2023/06/18 09:11:59;;;;;;;5.20;4.80;;;;;;;27.66;37.88;100779.55;105215;1291;73840;-91
2023/06/18 09:15:33;;;;;;;4.90;4.50;;;;;;;27.07;38.02;100776.88;105161;1292;67360;-91
2023/06/18 09:18:40;;;;;;;5.60;5.20;;;;;;;26.56;38.39;100774.84;105471;1290;73438;-90
2023/06/18 09:22:10;;;;;;;5.00;4.60;;;;;;;26.19;38.53;100768.75;105494;1288;60409;-90
2023/06/18 09:25:26;;;;;;;5.20;4.70;;;;;;;25.86;38.73;100763.64;105511;1289;60721;-90
2023/06/18 09:28:38;;;;;;;6.20;4.90;;;;;;;25.60;38.84;100757.84;105547;1292;73701;-91
2023/06/18 09:31:48;;;;;;;5.60;4.80;;;;;;;25.44;38.88;100760.14;105558;1288;68553;-91
2023/06/18 09:34:42;;;;;;;4.80;4.40;;;;;;;25.38;39.01;100757.08;105332;1288;75349;-91
2023/06/18 09:38:03;;;;;;;11.10;4.60;;;;;;;25.23;39.03;100754.84;105485;1288;59255;-90
2023/06/18 09:41:10;;;;;;;5.40;4.90;;;;;;;25.18;39.21;100752.23;105357;1288;60187;-91
2023/06/18 09:44:08;;;;;;;4.60;4.20;;;;;;;25.12;39.20;100744.39;105298;1292;72557;-90
2023/06/18 09:46:59;;;;;;;7.10;4.30;;;;;;;25.07;39.37;100748.30;105480;1288;67562;-91
2023/06/18 09:50:07;;;;;;;4.60;4.20;;;;;;;25.04;39.51;100743.58;105462;1288;71301;-90
2023/06/18 09:53:29;;;;;;;4.10;3.80;;;;;;;24.99;39.44;100740.23;105227;1291;58561;-91
2023/06/18 09:56:37;;;;;;;8.00;4.40;;;;;;;24.87;39.61;100741.80;105267;1292;59036;-90
2023/06/18 10:00:30;;;;;;;4.90;4.40;;;;;;;24.82;39.78;100741.85;105125;1291;72416;-91
2023/06/18 10:03:38;;;;;;;5.50;3.80;;;;;;;24.73;39.96;100735.77;105167;1296;68696;-90
2023/06/18 10:06:48;;;;;;;4.90;4.10;;;;;;;24.66;40.15;100728.76;105118;1291;72298;-91
2023/06/18 10:10:15;;;;;;;5.00;4.50;;;;;;;24.47;40.39;100725.90;105234;1291;60480;-90
2023/06/18 10:14:00;;;;;;;4.10;3.80;;;;;;;24.40;40.40;100724.13;105237;1291;60453;-91
2023/06/18 10:16:53;;;;;;;;;;;;;;;24.33;40.47;100721.80;105166;1292;73161;-91
2023/06/18 10:20:11;;;;;;;4.10;3.70;;;;;;;24.30;40.47;100719.23;105167;1291;67405;-90
2023/06/18 10:23:29;;;;;;;4.60;4.20;;;;;;;24.37;40.73;100724.38;105236;1296;72507;-90
2023/06/18 10:27:08;;;;;;;6.00;3.70;;;;;;;24.36;40.75;100723.86;105442;1289;60453;-90
2023/06/18 10:30:18;;;;;;;3.90;3.30;;;;;;;24.36;40.77;100720.90;105469;1288;60423;-90
2023/06/18 10:33:45;;;;;;;4.20;3.80;;;;;;;24.41;40.77;100723.20;105401;1288;72439;-91
2023/06/18 10:37:31;;;;;;;4.20;3.80;;;;;;;24.33;40.84;100719.35;105406;1288;67193;-90
2023/06/18 10:40:45;;;;;;;4.40;4.00;;;;;;;24.30;40.93;100717.48;105223;1288;71459;-90
2023/06/18 10:43:58;;;;;;;4.30;3.90;;;;;;;24.31;41.09;100714.34;105399;1289;61269;-90
2023/06/18 10:47:27;;;;;;;4.60;4.10;;;;;;;24.36;41.03;100719.83;105365;1288;60824;-90
2023/06/18 10:50:36;;;;;;;5.00;4.50;;;;;;;24.43;41.03;100718.30;105524;1289;73516;-90
2023/06/18 10:54:41;;;;;;;4.10;3.60;;;;;;;24.54;41.19;100716.92;105377;1289;67723;-91
2023/06/18 10:58:27;;;;;;;3.80;3.50;;;;;;;24.74;41.41;100707.70;105375;1288;71365;-90
2023/06/18 11:01:43;;;;;;;4.10;3.80;;;;;;;24.94;41.34;100702.33;105462;1288;60499;-91
2023/06/18 11:12:41;;;;;;;;;;;;;;;25.25;41.27;100694.02;104964;1298;67354;-90
2023/06/18 11:16:20;;;;;;;5.30;4.40;;;;;;;25.25;41.33;100691.70;105085;1287;71399;-90
2023/06/18 11:19:38;;;;;;;4.10;3.70;;;;;;;25.12;41.11;100690.20;105106;1296;60354;-90
2023/06/18 11:22:42;;;;;;;5.30;3.70;;;;;;;25.02;41.24;100689.91;105158;1297;60378;-90
2023/06/18 11:25:49;;;;;;;;;;;;;;;24.91;41.16;100682.47;105003;1294;75326;-90
2023/06/18 11:28:48;;;;;;;4.00;3.70;;;;;;;24.86;41.44;100679.27;105162;1297;67378;-90
2023/06/18 11:32:14;;;;;;;4.30;4.00;;;;;;;24.86;41.55;100674.39;105083;1295;72116;-90
2023/06/18 11:35:32;;;;;;;4.20;3.90;;;;;;;24.83;41.64;100671.95;105100;1295;59228;-90
2023/06/18 11:38:25;;;;;;;4.90;3.80;;;;;;;24.82;41.57;100669.90;105072;1291;60365;-89
2023/06/18 11:42:11;;;;;;;4.90;4.60;;;;;;;24.85;41.71;100667.60;104951;1291;73341;-90
2023/06/18 11:45:57;;;;;;;4.70;4.30;;;;;;;24.84;41.54;100660.77;105068;1293;69439;-90
2023/06/18 11:49:43;;;;;;;6.70;4.60;;;;;;;24.85;41.65;100660.66;105039;1292;71962;-90
2023/06/18 11:53:29;;;;;;;4.40;4.10;;;;;;;24.82;41.66;100658.42;105344;1288;59439;-90
2023/06/18 11:57:15;;;;;;;4.70;4.40;;;;;;;24.77;41.80;100649.67;105461;1291;60412;-89
2023/06/18 12:01:01;;;;;;;4.20;3.90;;;;;;;24.80;41.90;100651.05;105454;1292;74428;-89
2023/06/18 12:04:48;;;;;;;4.50;4.10;;;;;;;24.83;41.85;100650.98;105370;1288;68125;-90
2023/06/18 12:08:15;;;;;;;4.60;4.20;;;;;;;24.88;41.69;100659.56;105561;1288;70118;-90
2023/06/18 12:11:37;;;;;;;4.30;4.10;;;;;;;24.84;41.70;100655.67;105408;1291;59159;-89
2023/06/18 12:15:32;;;;;;;4.20;3.90;;;;;;;24.82;41.73;100658.97;105784;1293;60462;-90
2023/06/18 12:18:50;;;;;;;4.90;4.30;;;;;;;24.79;41.72;100659.94;104871;1295;76668;-89
2023/06/18 12:22:03;;;;;;;4.40;4.10;;;;;;;24.76;41.81;100660.98;104841;1298;70192;-89
2023/06/18 12:25:11;;;;;;;5.50;4.10;;;;;;;24.72;41.69;100665.20;104710;1298;75261;-89
2023/06/18 12:28:19;;;;;;;5.10;4.50;;;;;;;24.57;41.62;100659.64;104663;1297;60494;-89
2023/06/18 12:31:28;;;;;;;4.50;4.20;;;;;;;24.41;41.74;100659.75;104777;1297;61905;-90
2023/06/18 12:34:27;;;;;;;4.80;4.40;;;;;;;24.39;41.84;100660.23;105327;1295;73788;-90
2023/06/18 12:37:59;;;;;;;4.80;4.30;;;;;;;24.48;41.92;100651.98;105364;1299;66529;-90
2023/06/18 12:41:00;;;;;;;4.40;4.00;;;;;;;24.57;41.94;100650.42;105130;1298;72426;-89
2023/06/18 12:44:09;;;;;;;4.20;3.90;;;;;;;24.66;41.81;100646.23;105457;1295;57811;-90
2023/06/18 12:47:06;;;;;;;4.20;3.90;;;;;;;24.64;41.77;100647.25;105437;1296;59020;-89
2023/06/18 12:50:17;;;;;;;4.80;4.40;;;;;;;24.63;41.77;100645.56;104646;1300;72376;-89
2023/06/18 12:53:12;;;;;;;3.90;3.50;;;;;;;24.62;41.67;100645.48;104723;1296;67135;-89
2023/06/18 12:56:22;;;;;;;5.30;4.60;;;;;;;24.68;41.78;100641.64;105017;1294;72952;-89
2023/06/18 12:59:37;;;;;;;3.80;3.60;;;;;;;24.76;41.70;100637.23;105978;1289;58134;-90
2023/06/18 13:02:45;;;;;;;9.20;3.90;;;;;;;24.78;41.69;100637.62;105161;1290;61571;-89
2023/06/18 13:05:58;;;;;;;4.00;3.70;;;;;;;24.78;41.80;100640.63;105310;1289;75501;-89
2023/06/18 13:09:43;;;;;;;4.30;4.00;;;;;;;24.82;41.91;100642.25;105388;1292;67173;-89
2023/06/18 13:13:13;;;;;;;4.80;3.80;;;;;;;24.89;41.84;100643.28;105328;1289;72116;-89
2023/06/18 13:16:18;;;;;;;4.00;3.70;;;;;;;24.94;41.78;100647.16;105363;1294;59931;-89
2023/06/18 13:19:07;;;;;;;5.20;4.00;;;;;;;24.96;41.75;100647.18;105317;1292;60491;-89
2023/06/18 13:21:54;;;;;;;3.80;3.50;;;;;;;24.97;41.73;100648.34;105194;1296;72342;-89
2023/06/18 13:25:10;;;;;;;5.10;4.00;;;;;;;24.96;41.80;100651.75;105116;1289;68734;-89
2023/06/18 13:28:06;;;;;;;4.60;4.00;;;;;;;24.96;41.83;100648.00;105626;1289;71380;-89
2023/06/18 13:31:12;;;;;;;4.00;3.70;;;;;;;24.97;41.77;100645.31;105715;1289;60755;-89
2023/06/18 13:34:16;;;;;;;4.10;3.80;;;;;;;24.94;41.78;100643.98;105790;1287;62745;-89
2023/06/18 13:37:39;;;;;;;4.30;4.00;;;;;;;24.92;41.97;100644.96;105290;1288;73760;-89
2023/06/18 13:41:25;;;;;;;8.80;4.20;;;;;;;24.93;42.19;100652.48;105407;1288;68834;-90